Time;durP1;ratioP1;P1;durP2;ratioP2;P2;SDS_P1;SDS_P2;PMS_P1;PMS_P2;Temp;Humidity;BMP_temperature;BMP_pressure;BME280_temperature;BME280_humidity;BME280_pressure;Samples;Min_cycle;Max_cycle;Signal;HPM_P1;HPM_P2
2022/03/26 00:00:29;;;;;;;20.17;4.97;;;;;;;17.14;65.97;100264.84;5028918;28;20053;-68
2022/03/26 00:02:56;;;;;;;16.80;4.90;;;;;;;17.14;65.66;100262.00;5032217;28;20412;-68
2022/03/26 00:05:23;;;;;;;18.13;4.93;;;;;;;17.29;65.57;100279.25;5026929;28;20149;-67
2022/03/26 00:07:50;;;;;;;19.20;5.53;;;;;;;17.29;65.74;100279.25;5031144;28;20051;-69
2022/03/26 00:10:17;;;;;;;22.27;5.53;;;;;;;17.33;65.51;100278.59;5029822;28;20132;-68
2022/03/26 00:12:44;;;;;;;13.50;4.13;;;;;;;17.04;66.16;100257.53;5012206;28;20443;-69
2022/03/26 00:15:12;;;;;;;22.23;4.63;;;;;;;17.16;66.12;100283.09;5027984;28;20042;-68
2022/03/26 00:17:39;;;;;;;26.30;7.32;;;;;;;16.93;66.05;100247.75;5025908;28;20077;-69
2022/03/26 00:20:07;;;;;;;17.43;4.90;;;;;;;17.16;65.91;100276.59;5027339;28;20836;-69
2022/03/26 00:22:34;;;;;;;22.33;5.70;;;;;;;17.18;65.79;100283.56;5027568;28;20136;-70
2022/03/26 00:25:01;;;;;;;16.17;5.90;;;;;;;17.24;66.02;100287.91;5021878;28;20132;-70
2022/03/26 00:27:28;;;;;;;25.25;6.95;;;;;;;17.13;65.89;100247.09;5022116;28;20060;-69
2022/03/26 00:29:54;;;;;;;22.20;6.53;;;;;;;17.29;65.39;100267.97;5023793;28;20045;-70
2022/03/26 00:32:22;;;;;;;17.67;6.10;;;;;;;17.23;65.46;100265.63;5021842;28;20053;-70
2022/03/26 00:34:48;;;;;;;22.75;6.53;;;;;;;17.27;65.77;100270.31;5025365;28;20051;-70
2022/03/26 00:37:16;;;;;;;26.08;6.10;;;;;;;17.21;65.49;100253.88;5025795;28;20045;-69
2022/03/26 00:39:43;;;;;;;23.80;5.43;;;;;;;17.11;65.32;100238.09;5027432;28;20423;-70
2022/03/26 00:42:10;;;;;;;26.80;5.22;;;;;;;17.29;65.50;100272.78;5025793;28;20083;-68
2022/03/26 00:44:38;;;;;;;19.17;6.68;;;;;;;17.22;65.43;100273.28;5021773;28;20056;-69
2022/03/26 00:47:06;;;;;;;19.25;4.55;;;;;;;17.07;65.96;100276.63;5024300;28;20480;-68
2022/03/26 00:49:33;;;;;;;18.05;4.63;;;;;;;16.97;65.68;100265.66;5024529;28;20492;-68
2022/03/26 00:52:00;;;;;;;13.52;5.22;;;;;;;16.87;65.74;100249.88;5028914;28;20421;-69
2022/03/26 00:54:28;;;;;;;25.75;6.18;;;;;;;16.86;65.71;100258.69;5024702;28;20045;-70
2022/03/26 00:56:54;;;;;;;15.48;4.53;;;;;;;16.85;66.25;100262.63;5025255;28;20045;-68
2022/03/26 00:59:21;;;;;;;24.90;4.82;;;;;;;16.81;66.16;100277.41;5024570;28;20051;-68
2022/03/26 01:01:48;;;;;;;18.95;5.50;;;;;;;16.75;65.67;100258.16;5025119;28;20052;-69
2022/03/26 01:04:15;;;;;;;11.63;5.05;;;;;;;16.81;65.56;100266.13;5023399;28;20133;-69
2022/03/26 01:06:42;;;;;;;12.98;4.30;;;;;;;16.90;65.48;100277.41;5025212;28;20058;-69
2022/03/26 01:09:09;;;;;;;27.02;6.15;;;;;;;16.77;65.98;100267.94;5030210;28;20045;-69
2022/03/26 01:11:36;;;;;;;19.03;4.60;;;;;;;16.83;65.38;100268.63;5026371;28;20045;-68
2022/03/26 01:14:03;;;;;;;21.90;5.43;;;;;;;16.71;65.54;100241.03;5021747;28;20048;-69
2022/03/26 01:16:30;;;;;;;9.23;3.87;;;;;;;16.83;65.43;100253.69;5029252;28;20088;-70
2022/03/26 01:18:57;;;;;;;23.02;5.70;;;;;;;16.80;65.28;100261.66;5027438;28;20045;-70
2022/03/26 01:21:24;;;;;;;19.90;5.32;;;;;;;16.85;65.01;100263.47;5025886;28;20100;-71
2022/03/26 01:23:52;;;;;;;15.73;3.75;;;;;;;16.87;65.20;100263.16;5022984;28;20046;-70
2022/03/26 01:26:19;;;;;;;8.98;3.85;;;;;;;16.74;64.78;100248.00;5019915;28;20056;-70
2022/03/26 01:28:46;;;;;;;15.38;4.80;;;;;;;16.82;64.63;100258.50;5027400;28;20046;-70
2022/03/26 01:31:12;;;;;;;15.80;4.20;;;;;;;16.75;64.46;100250.53;5021760;28;20150;-70
2022/03/26 01:33:39;;;;;;;11.95;4.28;;;;;;;16.81;64.05;100259.66;5028471;28;20432;-70
2022/03/26 01:36:08;;;;;;;14.60;4.10;;;;;;;16.87;64.06;100249.06;5014203;28;20140;-70
2022/03/26 01:38:35;;;;;;;27.48;4.18;;;;;;;16.67;63.90;100214.66;5027809;28;20061;-70
2022/03/26 01:41:02;;;;;;;19.17;3.92;;;;;;;16.88;63.70;100251.53;5019791;28;20411;-69
2022/03/26 01:43:29;;;;;;;18.00;3.90;;;;;;;16.79;63.71;100233.78;5021432;28;20124;-71
2022/03/26 01:45:56;;;;;;;19.52;4.38;;;;;;;16.84;63.77;100229.97;5028831;28;20127;-70
2022/03/26 01:48:23;;;;;;;12.70;3.40;;;;;;;16.93;63.65;100244.91;5023395;28;20127;-70
2022/03/26 01:50:50;;;;;;;13.63;3.78;;;;;;;16.78;63.49;100224.47;5031598;28;20137;-70
2022/03/26 01:53:17;;;;;;;18.48;4.03;;;;;;;16.87;63.32;100251.88;5035319;28;20054;-70
2022/03/26 01:55:44;;;;;;;16.70;4.82;;;;;;;16.76;63.37;100240.91;5030214;28;20124;-69
2022/03/26 01:58:13;;;;;;;17.83;5.68;;;;;;;16.74;63.59;100246.03;5021698;28;20049;-69
2022/03/26 02:00:40;;;;;;;11.35;4.05;;;;;;;16.72;63.43;100244.69;5025644;28;20056;-69
2022/03/26 02:03:08;;;;;;;14.25;5.18;;;;;;;16.56;63.62;100222.59;5027794;28;20470;-69
2022/03/26 02:05:36;;;;;;;21.40;5.43;;;;;;;16.52;63.53;100223.59;5030880;28;20049;-69
2022/03/26 02:08:03;;;;;;;11.18;4.55;;;;;;;16.38;63.61;100186.28;5026717;28;20054;-69
2022/03/26 02:10:30;;;;;;;15.20;6.22;;;;;;;16.68;63.31;100240.84;5025497;28;20061;-69
2022/03/26 02:12:58;;;;;;;15.68;4.60;;;;;;;16.64;63.45;100234.22;5034035;28;20057;-68
2022/03/26 02:15:26;;;;;;;23.63;4.90;;;;;;;16.64;63.61;100226.59;5027217;28;20127;-68
2022/03/26 02:17:53;;;;;;;23.30;5.10;;;;;;;16.58;63.12;100223.13;5030573;28;20144;-68
2022/03/26 02:20:22;;;;;;;21.05;6.45;;;;;;;16.65;63.32;100238.69;5032139;28;20053;-69
2022/03/26 02:22:49;;;;;;;9.70;4.67;;;;;;;16.61;63.28;100223.59;5017219;28;20100;-68
2022/03/26 02:25:17;;;;;;;16.38;5.47;;;;;;;16.55;63.31;100214.47;5018341;28;20125;-68
2022/03/26 02:27:44;;;;;;;16.13;4.43;;;;;;;16.42;62.79;100190.09;5032607;28;20045;-68
2022/03/26 02:30:11;;;;;;;22.73;3.97;;;;;;;16.54;62.82;100212.81;5031775;28;20132;-67
2022/03/26 02:32:38;;;;;;;18.80;4.25;;;;;;;16.48;63.17;100200.06;5022946;28;20080;-69
2022/03/26 02:35:06;;;;;;;14.00;4.13;;;;;;;16.54;62.92;100218.44;5025238;28;20128;-68
2022/03/26 02:37:33;;;;;;;8.23;3.40;;;;;;;16.52;62.85;100215.97;5031824;28;20555;-69
2022/03/26 02:40:04;;;;;;;11.60;3.33;;;;;;;16.43;62.87;100201.00;5033013;28;20135;-69
2022/03/26 02:42:31;;;;;;;15.35;4.78;;;;;;;16.47;62.56;100209.66;5033697;28;20554;-69
2022/03/26 02:44:59;;;;;;;14.77;4.43;;;;;;;16.47;63.01;100212.47;5027601;28;20539;-68
2022/03/26 02:47:26;;;;;;;12.07;5.55;;;;;;;16.40;63.21;100196.03;5032992;28;20563;-69
2022/03/26 02:49:53;;;;;;;12.13;3.92;;;;;;;16.29;63.25;100180.59;5030031;28;20081;-68
2022/03/26 02:52:22;;;;;;;15.98;5.25;;;;;;;16.40;63.52;100212.94;5031213;28;20148;-69
2022/03/26 02:54:49;;;;;;;14.48;4.75;;;;;;;16.35;63.60;100211.13;5027719;28;20052;-68
2022/03/26 02:57:16;;;;;;;15.43;4.55;;;;;;;16.36;63.75;100211.94;5033339;28;20136;-70
2022/03/26 02:59:43;;;;;;;15.07;5.22;;;;;;;15.95;63.81;100150.34;5031866;28;20567;-69
2022/03/26 03:02:10;;;;;;;21.30;4.70;;;;;;;15.91;64.03;100150.19;5025058;28;20077;-69
2022/03/26 03:04:38;;;;;;;12.65;4.25;;;;;;;16.18;64.26;100198.97;5017330;28;20137;-69
2022/03/26 03:07:05;;;;;;;17.40;5.45;;;;;;;16.06;64.18;100191.13;5033009;28;20054;-69
2022/03/26 03:09:32;;;;;;;19.50;4.57;;;;;;;16.20;63.91;100219.19;5028698;28;20136;-68
2022/03/26 03:11:58;;;;;;;10.25;4.20;;;;;;;16.14;64.24;100210.06;5032571;28;20457;-69
2022/03/26 03:14:25;;;;;;;16.20;4.68;;;;;;;16.02;64.19;100188.16;5033395;28;20128;-68
2022/03/26 03:16:52;;;;;;;19.65;5.47;;;;;;;16.08;64.34;100212.19;5029593;28;20531;-69
2022/03/26 03:19:19;;;;;;;14.30;5.32;;;;;;;15.99;64.43;100185.16;5022347;28;20119;-68
2022/03/26 03:21:46;;;;;;;14.38;4.40;;;;;;;16.13;64.17;100208.38;5028042;28;20128;-68
2022/03/26 03:24:13;;;;;;;13.93;4.07;;;;;;;15.76;64.15;100154.28;5027266;28;20132;-68
2022/03/26 03:26:40;;;;;;;15.55;4.72;;;;;;;16.08;64.52;100194.47;5028844;28;20091;-68
2022/03/26 03:29:07;;;;;;;20.90;5.07;;;;;;;16.03;64.46;100197.41;5017713;28;20136;-69
2022/03/26 03:31:34;;;;;;;13.77;4.28;;;;;;;15.88;64.47;100157.28;5021026;28;20161;-68
2022/03/26 03:34:01;;;;;;;13.18;4.90;;;;;;;16.08;64.42;100192.47;5020235;28;20485;-69
2022/03/26 03:36:27;;;;;;;16.23;5.67;;;;;;;16.10;64.59;100190.19;5030622;28;20077;-69
2022/03/26 03:38:54;;;;;;;19.23;5.10;;;;;;;16.09;64.33;100168.78;5031388;28;20126;-69
2022/03/26 03:41:21;;;;;;;16.80;4.27;;;;;;;16.26;63.86;100172.81;5027706;28;20219;-67
2022/03/26 03:43:48;;;;;;;19.65;5.35;;;;;;;16.40;63.98;100192.38;5031295;28;20148;-68
2022/03/26 03:46:15;;;;;;;10.85;4.85;;;;;;;16.42;64.02;100182.47;5027500;28;20076;-68
2022/03/26 03:48:42;;;;;;;20.10;4.72;;;;;;;16.42;63.67;100173.19;5016582;28;20069;-68
2022/03/26 03:51:08;;;;;;;17.10;4.82;;;;;;;16.34;63.83;100152.25;5026799;28;20440;-68
2022/03/26 03:53:35;;;;;;;18.77;3.77;;;;;;;16.47;64.09;100178.63;5029528;28;20463;-68
2022/03/26 03:56:03;;;;;;;15.07;3.00;;;;;;;16.31;64.01;100167.84;5031813;28;20121;-67
2022/03/26 03:58:29;;;;;;;14.32;4.35;;;;;;;16.40;64.04;100189.56;5031150;28;20571;-67
2022/03/26 04:01:04;;;;;;;16.95;4.35;;;;;;;16.31;63.85;100187.56;5029195;28;20042;-68
2022/03/26 04:03:31;;;;;;;16.52;3.75;;;;;;;16.23;63.53;100171.47;5033470;28;20063;-68
2022/03/26 04:06:01;;;;;;;10.85;3.17;;;;;;;16.32;63.63;100194.88;5025182;28;20038;-68
2022/03/26 04:08:29;;;;;;;11.70;3.90;;;;;;;16.27;63.36;100183.75;5026567;28;20079;-68
2022/03/26 04:10:56;;;;;;;13.77;3.20;;;;;;;16.23;63.70;100181.91;5014279;28;20464;-68
2022/03/26 04:13:23;;;;;;;20.65;4.47;;;;;;;16.29;63.16;100189.88;5030446;28;20084;-68
2022/03/26 04:15:50;;;;;;;12.90;3.60;;;;;;;16.30;63.30;100187.88;5027354;28;20132;-68
2022/03/26 04:18:17;;;;;;;15.68;5.05;;;;;;;16.25;63.08;100171.97;5017249;28;20054;-67
2022/03/26 04:20:45;;;;;;;14.23;3.50;;;;;;;16.31;62.74;100181.94;5021981;28;20164;-68
2022/03/26 04:23:12;;;;;;;16.10;4.20;;;;;;;16.36;62.77;100189.41;5018264;28;20057;-67
2022/03/26 04:25:39;;;;;;;16.17;4.30;;;;;;;16.29;63.03;100195.50;5028654;28;20136;-68
2022/03/26 04:28:06;;;;;;;16.35;3.28;;;;;;;16.17;63.19;100180.41;5023281;28;20067;-68
2022/03/26 04:30:33;;;;;;;17.85;4.68;;;;;;;16.20;62.78;100185.38;5025463;28;20132;-67
2022/03/26 04:33:00;;;;;;;9.77;3.53;;;;;;;16.24;63.26;100192.00;5026619;28;20152;-68
2022/03/26 04:35:26;;;;;;;13.10;3.58;;;;;;;16.08;63.19;100180.38;5019384;28;20048;-68
2022/03/26 04:37:56;;;;;;;8.87;3.37;;;;;;;16.14;62.98;100195.97;5031869;28;20124;-67
2022/03/26 04:40:24;;;;;;;10.57;2.85;;;;;;;16.06;63.39;100191.13;5018977;28;20069;-68
2022/03/26 04:42:52;;;;;;;12.88;3.80;;;;;;;15.91;63.35;100188.78;5023080;28;20132;-68
2022/03/26 04:45:19;;;;;;;11.73;4.32;;;;;;;15.99;63.78;100199.22;5029358;28;20069;-68
2022/03/26 04:47:47;;;;;;;16.45;4.20;;;;;;;15.90;64.01;100193.59;5017106;28;20136;-68
2022/03/26 04:50:14;;;;;;;11.95;3.92;;;;;;;15.77;64.06;100178.44;5020715;28;20562;-68
2022/03/26 04:52:41;;;;;;;14.03;3.27;;;;;;;15.60;64.39;100170.72;5032621;28;20474;-68
2022/03/26 04:55:10;;;;;;;14.90;3.72;;;;;;;15.63;64.59;100184.16;5027812;28;20080;-68
2022/03/26 04:57:42;;;;;;;10.63;3.53;;;;;;;15.67;64.62;100201.25;5030800;28;20079;-68
2022/03/26 05:00:11;;;;;;;19.48;5.22;;;;;;;15.61;64.75;100199.69;5030441;28;20424;-68
2022/03/26 05:02:39;;;;;;;15.75;3.80;;;;;;;15.29;65.03;100170.72;5025829;28;20077;-68
2022/03/26 05:05:07;;;;;;;19.53;4.37;;;;;;;15.29;64.90;100183.97;5026871;28;20076;-68
2022/03/26 05:07:46;;;;;;;8.97;3.80;;;;;;;15.50;65.53;100213.22;5030929;28;20050;-68
2022/03/26 05:10:24;;;;;;;10.57;3.90;;;;;;;15.44;65.51;100208.03;5033149;28;20101;-66
2022/03/26 05:12:52;;;;;;;11.40;4.40;;;;;;;15.41;65.57;100212.31;5032732;28;20053;-66
2022/03/26 05:15:23;;;;;;;16.50;4.87;;;;;;;15.37;65.52;100197.22;5027007;28;20124;-67
2022/03/26 05:17:51;;;;;;;21.83;4.22;;;;;;;15.39;65.09;100203.38;5027508;28;20112;-66
2022/03/26 05:20:19;;;;;;;12.05;3.50;;;;;;;15.35;65.12;100186.31;5030334;28;20471;-67
2022/03/26 05:22:47;;;;;;;15.23;3.60;;;;;;;15.54;65.02;100202.13;5026894;28;20045;-67
2022/03/26 05:25:15;;;;;;;14.30;3.83;;;;;;;15.68;64.62;100224.59;5032636;28;20073;-67
2022/03/26 05:27:50;;;;;;;16.60;3.65;;;;;;;15.70;64.46;100220.31;5033033;28;20099;-68
2022/03/26 05:30:18;;;;;;;12.53;3.50;;;;;;;15.82;64.09;100217.72;5032206;28;20519;-67
2022/03/26 05:32:45;;;;;;;10.43;3.63;;;;;;;15.99;63.74;100224.56;5026905;28;20140;-68
2022/03/26 05:35:16;;;;;;;17.15;4.00;;;;;;;15.91;63.67;100200.88;5022680;28;20187;-68
2022/03/26 05:37:44;;;;;;;15.93;3.80;;;;;;;15.84;63.68;100184.44;5030421;28;20063;-69
2022/03/26 05:40:15;;;;;;;16.77;3.37;;;;;;;16.02;63.43;100204.22;5028741;28;20054;-68
2022/03/26 05:42:43;;;;;;;15.02;3.97;;;;;;;16.22;63.66;100228.16;5012754;28;20137;-69
2022/03/26 05:45:10;;;;;;;11.63;3.50;;;;;;;15.92;63.60;100190.44;5025938;28;20128;-70
2022/03/26 05:47:40;;;;;;;18.50;3.80;;;;;;;16.02;63.41;100223.94;5025460;28;20575;-70
2022/03/26 05:50:10;;;;;;;20.23;3.28;;;;;;;16.06;63.42;100231.41;5028132;28;20104;-69
2022/03/26 05:52:37;;;;;;;11.25;2.42;;;;;;;16.06;63.55;100236.19;5026896;28;20081;-70
2022/03/26 05:55:04;;;;;;;8.90;3.42;;;;;;;15.88;63.40;100224.88;5027606;28;20073;-70
2022/03/26 05:57:33;;;;;;;15.95;5.30;;;;;;;15.95;62.96;100243.28;5020675;28;20074;-70
2022/03/26 06:00:00;;;;;;;12.48;3.78;;;;;;;15.88;63.41;100247.38;5027621;28;20073;-68
2022/03/26 06:02:28;;;;;;;11.30;4.30;;;;;;;15.59;63.20;100207.66;5024380;28;20072;-69
2022/03/26 06:04:55;;;;;;;6.30;3.13;;;;;;;15.64;63.21;100224.38;5032331;28;20076;-70
2022/03/26 06:07:22;;;;;;;11.80;3.25;;;;;;;15.75;63.29;100242.69;5025869;28;20140;-70
2022/03/26 06:09:49;;;;;;;13.87;3.10;;;;;;;15.79;63.32;100246.50;5031849;28;20073;-69
2022/03/26 06:12:16;;;;;;;11.35;2.92;;;;;;;15.71;63.21;100230.41;5029416;28;20555;-71
2022/03/26 06:14:43;;;;;;;15.53;3.57;;;;;;;15.71;63.25;100247.31;5017087;28;20500;-71
2022/03/26 06:17:10;;;;;;;15.13;4.82;;;;;;;15.78;63.59;100256.13;5027430;28;20144;-69
2022/03/26 06:19:38;;;;;;;7.60;2.63;;;;;;;15.71;63.51;100240.84;5029245;28;20132;-71
2022/03/26 06:22:05;;;;;;;18.73;5.35;;;;;;;15.82;62.72;100268.38;5025148;28;20081;-71
2022/03/26 06:24:32;;;;;;;16.13;3.92;;;;;;;15.34;62.90;100195.06;5025070;28;20053;-71
2022/03/26 06:26:59;;;;;;;15.20;3.65;;;;;;;15.72;62.97;100260.22;5022851;28;20080;-70
2022/03/26 06:29:26;;;;;;;15.55;4.38;;;;;;;15.76;62.78;100275.34;5025353;28;20132;-70
2022/03/26 06:31:53;;;;;;;13.68;4.10;;;;;;;15.70;62.49;100256.91;5026393;28;20129;-69
2022/03/26 06:34:24;;;;;;;15.40;3.92;;;;;;;15.64;62.57;100250.53;5035289;28;20479;-71
2022/03/26 06:36:50;;;;;;;18.60;4.60;;;;;;;15.81;62.38;100263.09;5034115;28;20462;-70
2022/03/26 06:39:17;;;;;;;15.43;4.20;;;;;;;15.75;62.11;100244.66;5032887;28;20466;-71
2022/03/26 06:41:45;;;;;;;15.90;3.13;;;;;;;15.88;62.23;100274.72;5030588;28;20080;-70
2022/03/26 06:44:12;;;;;;;11.45;3.30;;;;;;;15.65;62.16;100248.56;5033947;28;20154;-70
2022/03/26 06:46:40;;;;;;;17.52;3.90;;;;;;;15.91;61.96;100278.88;5033450;28;20055;-70
2022/03/26 06:49:08;;;;;;;15.25;3.78;;;;;;;15.80;61.89;100267.91;5033887;28;20051;-70
2022/03/26 06:51:36;;;;;;;15.63;4.10;;;;;;;15.62;62.03;100235.97;5032550;28;20080;-73
2022/03/26 06:54:04;;;;;;;13.13;4.07;;;;;;;15.54;62.12;100231.09;5033535;28;20077;-70
2022/03/26 06:56:31;;;;;;;10.20;3.90;;;;;;;15.84;61.67;100274.53;5034004;28;20083;-71
2022/03/26 06:58:58;;;;;;;15.27;2.70;;;;;;;15.72;61.87;100257.41;5018684;28;20128;-71
2022/03/26 07:01:25;;;;;;;18.75;4.25;;;;;;;15.88;61.78;100280.34;5032308;28;20042;-71
2022/03/26 07:03:52;;;;;;;13.85;3.00;;;;;;;15.79;61.49;100265.38;5032158;28;20060;-71
2022/03/26 07:06:19;;;;;;;10.93;3.15;;;;;;;15.93;61.37;100282.19;5029047;28;20073;-70
2022/03/26 07:08:46;;;;;;;21.75;4.00;;;;;;;15.92;61.37;100278.56;5030304;28;20129;-70
2022/03/26 07:11:13;;;;;;;13.57;2.53;;;;;;;15.93;61.05;100293.47;5033778;28;20467;-72
2022/03/26 07:13:40;;;;;;;5.80;1.83;;;;;;;15.87;61.15;100290.78;5033683;28;20049;-69
2022/03/26 07:16:07;;;;;;;7.18;2.90;;;;;;;15.62;61.10;100282.97;5031152;28;20082;-71
2022/03/26 07:18:35;;;;;;;10.73;3.00;;;;;;;15.78;60.83;100297.53;5026619;28;20159;-70
2022/03/26 07:21:02;;;;;;;8.68;3.47;;;;;;;15.78;60.84;100306.78;5027512;28;20124;-71
2022/03/26 07:23:29;;;;;;;14.30;5.10;;;;;;;15.83;60.51;100297.41;5029050;28;20128;-70
2022/03/26 07:25:56;;;;;;;20.58;4.07;;;;;;;15.38;60.71;100222.25;5027884;28;20547;-71
2022/03/26 07:28:23;;;;;;;8.13;2.38;;;;;;;15.86;60.34;100303.22;5028421;28;20140;-67
2022/03/26 07:30:58;;;;;;;4.30;2.03;;;;;;;15.75;60.62;100284.09;5023406;28;20080;-69
2022/03/26 07:33:25;;;;;;;15.38;3.30;;;;;;;15.85;59.94;100286.63;5027966;28;20080;-68
2022/03/26 07:35:51;;;;;;;2.78;1.55;;;;;;;16.11;60.39;100331.84;5023069;28;20046;-68
2022/03/26 07:38:18;;;;;;;12.82;2.75;;;;;;;15.98;60.22;100291.34;5022426;28;20049;-69
2022/03/26 07:40:45;;;;;;;7.50;2.22;;;;;;;16.07;59.91;100316.75;5021890;28;20081;-69
2022/03/26 07:43:12;;;;;;;5.18;1.98;;;;;;;15.98;60.11;100313.06;5024582;28;20497;-69
2022/03/26 07:45:38;;;;;;;14.50;2.80;;;;;;;16.06;59.73;100321.53;5029853;28;20481;-69
2022/03/26 07:48:06;;;;;;;10.43;2.72;;;;;;;16.21;59.68;100317.47;5023014;28;20042;-68
2022/03/26 07:50:33;;;;;;;8.40;2.72;;;;;;;16.37;59.16;100320.69;5031607;28;20128;-68
2022/03/26 07:53:00;;;;;;;10.07;2.50;;;;;;;16.13;59.06;100298.53;5027736;28;20080;-69
2022/03/26 07:55:27;;;;;;;11.20;3.00;;;;;;;16.25;59.42;100324.13;5025267;28;20136;-68
2022/03/26 07:57:54;;;;;;;16.10;3.30;;;;;;;16.23;59.00;100303.88;5021505;28;20129;-68
2022/03/26 08:00:21;;;;;;;15.15;3.50;;;;;;;16.34;59.02;100321.31;5028625;28;20080;-68
2022/03/26 08:02:48;;;;;;;9.32;3.10;;;;;;;16.24;59.12;100310.34;5026394;28;20092;-68
2022/03/26 08:05:15;;;;;;;8.27;2.42;;;;;;;16.42;58.81;100322.53;5025979;28;20509;-68
2022/03/26 08:07:42;;;;;;;6.50;2.33;;;;;;;16.35;58.80;100312.56;5019914;28;20455;-70
2022/03/26 08:10:10;;;;;;;16.55;2.70;;;;;;;16.25;58.62;100318.50;5021595;28;20649;-68
2022/03/26 08:12:37;;;;;;;12.40;2.92;;;;;;;16.35;58.38;100311.75;5027843;28;20077;-68
2022/03/26 08:15:05;;;;;;;7.18;1.88;;;;;;;16.17;58.44;100330.56;5027588;28;20402;-68
2022/03/26 08:17:33;;;;;;;5.05;1.98;;;;;;;16.22;58.31;100333.22;5018553;28;20098;-68
2022/03/26 08:19:59;;;;;;;4.85;2.08;;;;;;;16.07;58.67;100328.03;5023637;28;20081;-69
2022/03/26 08:22:26;;;;;;;1.55;1.15;;;;;;;16.26;58.11;100342.69;5022758;28;20058;-68
2022/03/26 08:24:53;;;;;;;17.38;2.92;;;;;;;16.27;58.39;100335.91;5024333;28;20132;-68
2022/03/26 08:27:20;;;;;;;14.32;3.08;;;;;;;16.31;58.17;100342.56;5023278;28;20129;-67
2022/03/26 08:29:48;;;;;;;13.93;4.57;;;;;;;16.04;57.81;100294.88;5023647;28;20476;-69
2022/03/26 08:32:15;;;;;;;9.00;3.55;;;;;;;16.51;57.65;100360.03;5024316;28;20749;-68
2022/03/26 08:34:43;;;;;;;8.60;2.42;;;;;;;16.30;57.51;100326.78;5026739;28;20496;-68
2022/03/26 08:37:10;;;;;;;16.33;2.47;;;;;;;16.60;57.17;100346.81;5020073;28;20133;-69
2022/03/26 08:39:37;;;;;;;4.85;2.30;;;;;;;16.41;57.19;100349.03;5019972;28;20132;-68
2022/03/26 08:42:05;;;;;;;5.13;1.98;;;;;;;16.13;57.49;100312.63;5027245;28;20471;-68
2022/03/26 08:44:32;;;;;;;11.35;3.55;;;;;;;16.33;56.72;100328.97;5023894;28;20076;-67
2022/03/26 08:47:02;;;;;;;6.75;2.65;;;;;;;16.46;56.66;100334.81;5028690;28;20120;-68
2022/03/26 08:49:30;;;;;;;11.43;3.33;;;;;;;16.68;56.81;100360.09;5019709;28;20080;-68
2022/03/26 08:51:57;;;;;;;14.10;3.58;;;;;;;16.84;56.52;100362.50;5021247;28;20129;-68
2022/03/26 08:54:24;;;;;;;14.52;4.07;;;;;;;16.74;55.93;100341.91;5027632;28;20470;-67
2022/03/26 08:56:50;;;;;;;11.25;3.28;;;;;;;16.72;56.28;100349.84;5025049;28;20585;-67
2022/03/26 08:59:17;;;;;;;13.32;3.70;;;;;;;16.81;56.02;100336.63;5031036;28;20100;-67
2022/03/26 09:01:44;;;;;;;11.13;3.35;;;;;;;16.70;55.83;100320.31;5029154;28;20163;-68
2022/03/26 09:04:14;;;;;;;9.75;3.03;;;;;;;16.98;55.92;100371.69;5019400;28;20136;-67
2022/03/26 09:06:41;;;;;;;11.07;3.38;;;;;;;17.09;55.39;100361.72;5023004;28;20054;-68
2022/03/26 09:09:08;;;;;;;14.43;3.20;;;;;;;17.12;55.59;100355.44;5024171;28;20175;-67
2022/03/26 09:11:35;;;;;;;6.25;2.35;;;;;;;17.14;55.53;100346.66;5024581;28;20471;-68
2022/03/26 09:14:02;;;;;;;10.82;4.00;;;;;;;17.37;55.08;100373.59;5031696;28;20049;-68
2022/03/26 09:16:30;;;;;;;13.98;3.17;;;;;;;17.15;55.11;100345.50;5030773;28;20448;-68
2022/03/26 09:18:57;;;;;;;6.85;2.80;;;;;;;17.41;54.61;100368.09;5026509;28;20061;-68
2022/03/26 09:21:24;;;;;;;13.00;2.63;;;;;;;17.31;54.66;100348.66;5013590;28;20053;-69
2022/03/26 09:23:51;;;;;;;4.43;2.28;;;;;;;17.34;54.55;100353.66;5025276;28;20133;-68
2022/03/26 09:26:18;;;;;;;14.50;4.22;;;;;;;17.49;54.27;100367.25;5029394;28;20084;-69
2022/03/26 09:28:45;;;;;;;10.23;3.50;;;;;;;17.43;54.35;100343.19;5024241;28;20133;-68
2022/03/26 09:31:12;;;;;;;8.68;2.85;;;;;;;17.14;53.67;100285.41;5025404;28;20077;-69
2022/03/26 09:33:39;;;;;;;5.25;1.95;;;;;;;17.85;53.90;100363.31;5021440;28;20064;-68
2022/03/26 09:36:06;;;;;;;10.93;2.70;;;;;;;17.81;53.30;100357.50;5020568;28;20083;-68
2022/03/26 09:38:33;;;;;;;10.68;2.97;;;;;;;18.08;53.01;100384.53;5022440;28;20049;-67
2022/03/26 09:41:01;;;;;;;3.78;2.30;;;;;;;18.07;52.67;100380.03;5020396;28;20127;-66
2022/03/26 09:43:29;;;;;;;14.00;3.40;;;;;;;17.92;52.59;100364.47;5018958;28;20092;-67
2022/03/26 09:45:56;;;;;;;1.90;1.70;;;;;;;18.05;52.42;100393.69;5021834;28;20085;-67
2022/03/26 09:48:23;;;;;;;4.00;1.17;;;;;;;17.99;52.47;100386.56;5017235;28;20152;-67
2022/03/26 09:50:53;;;;;;;9.63;2.83;;;;;;;18.10;52.46;100396.34;5028940;28;20078;-67
2022/03/26 09:53:21;;;;;;;3.05;2.03;;;;;;;17.72;52.01;100371.59;5031367;28;20195;-67
2022/03/26 09:55:48;;;;;;;9.88;2.17;;;;;;;17.76;51.75;100417.78;5027872;28;20132;-67
2022/03/26 09:58:15;;;;;;;19.38;2.30;;;;;;;17.68;51.88;100407.31;5027296;28;20061;-67
2022/03/26 10:00:48;;;;;;;9.02;2.17;;;;;;;17.74;52.18;100397.50;5026681;28;20052;-66
2022/03/26 10:03:17;;;;;;;12.77;3.08;;;;;;;17.90;52.05;100388.53;5029153;28;20067;-67
2022/03/26 10:05:44;;;;;;;7.27;2.77;;;;;;;17.91;52.00;100398.69;5035448;28;20128;-67
2022/03/26 10:08:22;;;;;;;4.45;2.53;;;;;;;18.04;51.32;100408.97;5033975;28;20053;-67
2022/03/26 10:10:50;;;;;;;5.05;2.53;;;;;;;18.08;51.58;100424.09;5034099;28;20084;-66
2022/03/26 10:13:40;;;;;;;5.00;2.42;;;;;;;18.13;51.41;100426.75;5035772;28;20064;-68
2022/03/26 10:16:12;;;;;;;12.40;2.83;;;;;;;18.15;51.45;100421.59;5030343;28;20492;-68
2022/03/26 10:18:47;;;;;;;7.40;3.10;;;;;;;18.24;51.45;100419.56;5035039;28;20054;-67
2022/03/26 10:21:16;;;;;;;6.43;2.03;;;;;;;18.18;51.38;100418.09;5027855;28;20084;-67
2022/03/26 10:23:44;;;;;;;10.38;3.08;;;;;;;18.36;51.20;100429.34;5026464;28;20161;-67
2022/03/26 10:26:14;;;;;;;9.02;2.72;;;;;;;18.27;50.86;100418.09;5034561;28;20132;-67
2022/03/26 10:28:43;;;;;;;4.43;1.75;;;;;;;18.34;51.20;100435.34;5028678;28;20181;-67
2022/03/26 10:34:13;;;;;;;1.52;1.25;;;;;;;18.18;51.15;100406.78;5033969;28;20050;-66
2022/03/26 10:36:45;;;;;;;4.78;2.55;;;;;;;18.37;50.92;100431.88;5034121;28;20045;-67
2022/03/26 10:39:21;;;;;;;6.90;2.58;;;;;;;18.36;50.97;100418.03;5028196;28;20080;-68
2022/03/26 10:41:49;;;;;;;9.15;2.42;;;;;;;18.47;50.75;100430.69;5028588;28;20049;-68
2022/03/26 10:44:26;;;;;;;6.38;2.92;;;;;;;18.50;50.59;100423.53;5032996;28;20135;-67
2022/03/26 10:46:57;;;;;;;4.47;2.33;;;;;;;18.57;50.35;100435.16;5032991;28;20428;-67
2022/03/26 10:49:29;;;;;;;2.53;2.17;;;;;;;18.45;50.00;100430.16;5031069;28;20064;-66
2022/03/26 10:52:05;;;;;;;7.20;3.17;;;;;;;18.60;49.94;100428.81;5035619;28;20457;-66
2022/03/26 10:54:33;;;;;;;6.68;1.77;;;;;;;18.63;49.94;100428.97;5035549;28;20080;-67
2022/03/26 10:57:01;;;;;;;7.82;1.98;;;;;;;18.59;50.02;100435.63;5031036;28;20584;-67
2022/03/26 10:59:29;;;;;;;12.05;3.78;;;;;;;18.56;49.80;100414.50;5028706;28;20088;-67
2022/03/26 11:01:57;;;;;;;10.80;4.20;;;;;;;18.54;49.60;100374.44;5033784;28;20095;-67
2022/03/26 11:04:28;;;;;;;7.00;2.92;;;;;;;19.14;49.54;100434.75;5030157;28;20137;-67
2022/03/26 11:06:56;;;;;;;11.68;3.42;;;;;;;19.28;49.20;100424.03;5033136;28;20133;-68
2022/03/26 11:09:26;;;;;;;4.53;2.95;;;;;;;19.53;49.33;100427.84;5031574;28;20140;-68
2022/03/26 11:11:53;;;;;;;12.43;4.13;;;;;;;19.26;49.31;100392.41;5033788;28;20059;-68
2022/03/26 11:14:34;;;;;;;12.88;3.58;;;;;;;19.81;48.97;100416.00;5034731;28;20056;-67
2022/03/26 11:17:22;;;;;;;12.05;3.90;;;;;;;20.16;48.13;100435.53;5034137;28;20080;-68
2022/03/26 11:20:08;;;;;;;7.78;3.20;;;;;;;20.15;47.72;100428.22;5031270;28;20469;-67
2022/03/26 11:23:02;;;;;;;14.55;3.65;;;;;;;20.09;47.54;100433.25;5031589;28;20050;-68
2022/03/26 11:25:38;;;;;;;10.68;4.10;;;;;;;20.07;47.60;100436.44;5032443;28;20140;-67